Time;durP1;ratioP1;P1;durP2;ratioP2;P2;SDS_P1;SDS_P2;PMS_P1;PMS_P2;Temp;Humidity;BMP_temperature;BMP_pressure;BME280_temperature;BME280_humidity;BME280_pressure;Samples;Min_cycle;Max_cycle;Signal;HPM_P1;HPM_P2
2021/01/15 00:01:32;;;;;;;4.88;0.80;;;;;;;11.40;55.30;100842.25;5045557;28;20135;-67
2021/01/15 00:03:57;;;;;;;9.07;1.10;;;;;;;11.43;54.52;100842.28;5045706;28;20041;-67
2021/01/15 00:06:22;;;;;;;4.63;0.90;;;;;;;11.43;55.23;100848.47;5044835;28;20509;-68
2021/01/15 00:08:48;;;;;;;6.30;0.90;;;;;;;11.42;55.40;100838.75;5017812;28;20045;-67
2021/01/15 00:11:13;;;;;;;8.38;1.33;;;;;;;11.40;55.37;100840.50;5011219;28;20495;-66
2021/01/15 00:13:39;;;;;;;6.18;1.00;;;;;;;11.39;55.46;100844.00;5011016;28;20145;-66
2021/01/15 00:16:04;;;;;;;9.68;1.00;;;;;;;11.38;55.03;100830.78;5039041;28;20033;-67
2021/01/15 00:18:29;;;;;;;10.38;1.60;;;;;;;11.36;55.14;100837.78;5030866;28;20179;-67
2021/01/15 00:20:55;;;;;;;6.72;0.95;;;;;;;11.35;55.11;100850.13;5043845;28;20068;-67
2021/01/15 00:23:20;;;;;;;9.23;0.95;;;;;;;11.33;55.04;100850.97;5030797;28;20042;-67
2021/01/15 00:25:45;;;;;;;7.00;0.93;;;;;;;11.33;55.36;100840.41;5030417;28;20380;-67
2021/01/15 00:28:11;;;;;;;9.40;0.98;;;;;;;11.32;55.41;100838.63;5029823;28;20057;-67
2021/01/15 00:30:36;;;;;;;9.82;1.50;;;;;;;11.34;54.99;100834.25;5027051;28;20045;-67
2021/01/15 00:33:01;;;;;;;2.80;1.00;;;;;;;11.35;55.59;100836.03;5027759;28;20041;-67
2021/01/15 00:35:27;;;;;;;10.45;1.10;;;;;;;11.35;55.62;100838.66;5030158;28;20034;-68
2021/01/15 00:37:52;;;;;;;7.55;1.00;;;;;;;11.35;55.41;100843.97;5029021;28;20048;-67
2021/01/15 00:40:18;;;;;;;3.78;0.80;;;;;;;11.35;55.48;100843.97;5046082;28;20118;-66
2021/01/15 00:42:43;;;;;;;4.65;1.00;;;;;;;11.34;55.78;100842.19;5040265;28;20053;-67
2021/01/15 00:45:08;;;;;;;4.50;0.93;;;;;;;11.31;55.78;100837.72;5015716;28;20071;-67
2021/01/15 00:47:34;;;;;;;7.68;1.52;;;;;;;11.30;55.79;100837.69;5030053;28;20411;-67
2021/01/15 00:49:59;;;;;;;6.13;1.20;;;;;;;11.28;55.84;100826.25;5030168;28;20041;-67
2021/01/15 00:52:24;;;;;;;7.97;1.08;;;;;;;11.28;55.69;100826.25;5015055;28;20061;-67
2021/01/15 00:54:50;;;;;;;9.57;2.45;;;;;;;11.25;55.72;100824.44;5021248;28;20056;-68
2021/01/15 00:57:15;;;;;;;11.43;6.13;;;;;;;11.19;55.89;100822.59;5029833;28;20515;-67
2021/01/15 00:59:40;;;;;;;15.90;8.18;;;;;;;11.11;56.38;100821.59;5026190;28;20096;-67
2021/01/15 01:02:06;;;;;;;14.48;4.57;;;;;;;11.05;55.85;100818.88;5027633;28;20521;-67
2021/01/15 01:04:31;;;;;;;5.45;2.08;;;;;;;11.01;55.84;100822.34;5010673;28;20041;-67
2021/01/15 01:06:57;;;;;;;4.82;1.13;;;;;;;10.95;56.33;100826.66;5026359;28;20041;-67
2021/01/15 01:09:23;;;;;;;3.75;1.00;;;;;;;10.92;55.83;100826.59;5034640;28;20042;-67
2021/01/15 01:11:48;;;;;;;3.95;1.17;;;;;;;10.91;56.10;100830.97;5021216;28;20038;-67
2021/01/15 01:14:13;;;;;;;14.13;1.20;;;;;;;10.87;56.32;100829.16;5037939;28;20041;-67
2021/01/15 01:16:39;;;;;;;7.63;1.02;;;;;;;10.84;56.47;100823.81;5045030;28;20509;-67
2021/01/15 01:19:04;;;;;;;5.47;1.17;;;;;;;10.81;55.69;100829.06;5028325;28;20049;-67
2021/01/15 01:21:32;;;;;;;10.88;1.42;;;;;;;10.78;56.24;100831.66;5023203;28;20046;-67
2021/01/15 01:23:57;;;;;;;7.05;1.00;;;;;;;10.80;55.83;100837.84;5041614;28;20041;-67
2021/01/15 01:26:23;;;;;;;8.40;1.10;;;;;;;10.84;56.47;100842.31;5029783;28;20041;-67
2021/01/15 01:28:48;;;;;;;3.15;0.80;;;;;;;10.84;56.44;100831.75;5029434;28;20099;-67
2021/01/15 01:31:13;;;;;;;2.72;0.90;;;;;;;10.81;56.04;100839.63;5029536;28;20046;-67
2021/01/15 01:33:39;;;;;;;11.18;1.17;;;;;;;10.77;56.03;100837.78;5029293;28;20045;-67
2021/01/15 01:36:04;;;;;;;8.20;1.17;;;;;;;10.75;56.55;100839.53;5028863;28;20539;-68
2021/01/15 01:38:30;;;;;;;7.50;0.98;;;;;;;10.74;56.04;100843.03;5028158;28;20037;-67
2021/01/15 01:40:55;;;;;;;6.03;0.90;;;;;;;10.73;56.02;100851.81;5010918;28;20046;-67
2021/01/15 01:43:20;;;;;;;6.55;0.90;;;;;;;10.68;56.12;100846.47;5024608;28;20034;-67
2021/01/15 01:45:46;;;;;;;6.32;3.33;;;;;;;10.63;56.37;100836.72;5040358;28;20034;-67
2021/01/15 01:48:11;;;;;;;9.75;2.30;;;;;;;10.60;56.07;100832.25;5030185;28;20045;-67
2021/01/15 01:50:36;;;;;;;11.38;1.10;;;;;;;10.60;56.55;100831.34;5032103;28;20045;-68
2021/01/15 01:53:02;;;;;;;6.68;0.88;;;;;;;10.63;56.21;100823.50;5031321;28;20061;-67
2021/01/15 01:55:27;;;;;;;4.50;0.90;;;;;;;10.66;56.74;100815.63;5049237;28;20033;-67
2021/01/15 01:57:52;;;;;;;7.43;1.00;;;;;;;10.71;56.91;100806.00;5047045;28;20045;-67
2021/01/15 02:00:18;;;;;;;10.48;1.20;;;;;;;10.77;56.75;100808.75;5027082;28;20042;-68
2021/01/15 02:02:43;;;;;;;7.88;1.30;;;;;;;10.82;56.76;100801.81;5012879;28;20121;-67
2021/01/15 02:05:08;;;;;;;5.57;0.90;;;;;;;10.86;57.16;100800.09;5013546;28;20030;-66
2021/01/15 02:07:34;;;;;;;7.82;1.08;;;;;;;10.91;57.28;100786.06;5015348;28;20041;-67
2021/01/15 02:09:59;;;;;;;8.68;1.30;;;;;;;10.97;56.90;100786.16;5048129;28;20408;-67
2021/01/15 02:12:24;;;;;;;17.00;2.05;;;;;;;10.98;57.56;100784.41;5048251;28;20041;-67
2021/01/15 02:14:50;;;;;;;10.90;1.35;;;;;;;10.98;57.08;100790.59;5032353;28;20123;-67
2021/01/15 02:17:15;;;;;;;11.50;1.10;;;;;;;11.03;57.02;100782.72;5046017;28;20430;-67
2021/01/15 02:19:41;;;;;;;8.98;1.20;;;;;;;11.10;57.52;100795.16;5032694;28;20033;-67
2021/01/15 02:22:06;;;;;;;14.02;1.35;;;;;;;11.17;57.10;100781.16;5032995;28;20030;-67
2021/01/15 02:24:31;;;;;;;9.23;1.00;;;;;;;11.26;57.74;100783.94;5019518;28;20411;-67
2021/01/15 02:26:57;;;;;;;9.18;1.40;;;;;;;11.30;57.77;100774.28;5028821;28;20045;-68
2021/01/15 02:29:22;;;;;;;7.93;1.05;;;;;;;11.29;57.22;100770.75;5028350;28;20133;-67
2021/01/15 02:31:48;;;;;;;25.67;6.53;;;;;;;11.35;57.10;100759.38;5029505;28;20056;-67
2021/01/15 02:34:13;;;;;;;18.83;4.82;;;;;;;11.45;57.35;100756.84;5027538;28;20099;-67
2021/01/15 02:36:38;;;;;;;16.40;1.70;;;;;;;11.51;57.36;100745.47;5012740;28;20057;-67
2021/01/15 02:39:04;;;;;;;9.82;1.75;;;;;;;11.54;57.20;100756.09;5040399;28;20091;-67
2021/01/15 02:41:29;;;;;;;9.27;2.10;;;;;;;11.51;57.49;100751.66;5031175;28;20413;-67
2021/01/15 02:43:55;;;;;;;4.60;1.48;;;;;;;11.42;56.87;100745.38;5031761;28;20469;-67
2021/01/15 02:46:20;;;;;;;5.72;2.97;;;;;;;11.32;57.16;100749.66;5012862;28;20038;-67
2021/01/15 02:48:45;;;;;;;9.27;2.17;;;;;;;11.25;57.24;100757.47;5013421;28;20042;-67
2021/01/15 02:51:10;;;;;;;7.38;3.40;;;;;;;11.16;57.24;100759.13;5012736;28;20054;-67
2021/01/15 02:53:36;;;;;;;14.10;3.00;;;;;;;11.10;56.71;100748.47;5021089;28;20406;-67
2021/01/15 02:56:01;;;;;;;6.78;1.27;;;;;;;11.14;56.37;100749.44;5026401;28;20565;-67
2021/01/15 02:58:26;;;;;;;16.90;1.48;;;;;;;11.22;56.46;100741.59;5032000;28;20107;-68
2021/01/15 03:00:52;;;;;;;12.95;1.40;;;;;;;11.24;57.01;100739.84;5047330;28;20052;-67
2021/01/15 03:03:17;;;;;;;6.55;1.98;;;;;;;11.16;57.19;100732.72;5031593;28;20579;-67
2021/01/15 03:05:43;;;;;;;10.10;1.38;;;;;;;11.04;56.72;100732.56;5031704;28;20128;-68
2021/01/15 03:08:08;;;;;;;10.63;1.85;;;;;;;10.91;56.41;100725.34;5032311;28;20049;-67
2021/01/15 03:10:33;;;;;;;6.43;1.20;;;;;;;10.81;56.55;100734.00;5032232;28;20037;-67
2021/01/15 03:12:59;;;;;;;4.68;2.35;;;;;;;10.70;56.42;100727.66;5030807;28;20091;-67
2021/01/15 03:15:24;;;;;;;11.43;2.20;;;;;;;10.61;56.55;100733.72;5027426;28;20681;-67
2021/01/15 03:17:49;;;;;;;6.03;2.60;;;;;;;10.53;56.52;100729.19;5046040;28;20048;-67
2021/01/15 03:20:15;;;;;;;2.63;1.20;;;;;;;10.46;56.89;100719.41;5012456;28;20061;-67
2021/01/15 03:22:44;;;;;;;10.23;5.47;;;;;;;10.39;56.68;100723.69;5024086;28;20048;-68
2021/01/15 03:25:09;;;;;;;8.05;2.40;;;;;;;10.35;56.56;100733.34;5027276;28;20046;-67
2021/01/15 03:27:35;;;;;;;8.52;2.55;;;;;;;10.34;56.85;100726.28;5017901;28;20042;-67
2021/01/15 03:30:00;;;;;;;5.68;1.45;;;;;;;10.32;56.70;100737.66;5011803;28;20038;-67
2021/01/15 03:32:25;;;;;;;3.88;1.25;;;;;;;10.31;56.74;100746.44;5012859;28;20041;-67
2021/01/15 03:34:51;;;;;;;8.90;1.00;;;;;;;10.32;56.41;100750.84;5040033;28;20491;-67
2021/01/15 03:37:16;;;;;;;6.93;0.80;;;;;;;10.32;56.49;100741.19;5027110;28;20495;-67
2021/01/15 03:39:41;;;;;;;6.25;1.40;;;;;;;10.33;56.82;100745.59;5028945;28;20680;-67
2021/01/15 03:42:07;;;;;;;2.42;1.10;;;;;;;10.35;56.79;100751.81;5031077;28;20174;-67
2021/01/15 03:44:33;;;;;;;11.82;2.83;;;;;;;10.34;56.91;100757.94;5030976;28;20050;-67
2021/01/15 03:46:58;;;;;;;6.80;1.58;;;;;;;10.34;56.66;100763.22;5031277;28;20034;-67
2021/01/15 03:49:24;;;;;;;6.10;1.10;;;;;;;10.36;57.00;100773.81;5029414;28;20037;-67
2021/01/15 03:51:49;;;;;;;7.90;1.40;;;;;;;10.39;56.51;100780.00;5030430;28;20040;-67
2021/01/15 03:54:14;;;;;;;3.72;1.08;;;;;;;10.37;57.02;100781.72;5023584;28;20049;-67
2021/01/15 03:56:40;;;;;;;6.88;0.93;;;;;;;10.36;56.50;100782.59;5030457;28;20506;-67
2021/01/15 03:59:05;;;;;;;7.43;1.70;;;;;;;10.40;56.79;100780.88;5030689;28;20045;-67
2021/01/15 04:01:30;;;;;;;3.28;0.77;;;;;;;10.45;56.66;100773.94;5029510;28;20052;-67
2021/01/15 04:03:56;;;;;;;7.90;1.13;;;;;;;10.50;56.11;100758.19;5028253;28;20513;-67
2021/01/15 04:06:21;;;;;;;9.07;1.40;;;;;;;10.53;56.27;100748.56;5030809;28;20128;-67
2021/01/15 04:08:46;;;;;;;10.05;1.48;;;;;;;10.54;56.72;100733.59;5029996;28;20040;-67
2021/01/15 04:11:12;;;;;;;9.65;1.40;;;;;;;10.60;56.32;100720.50;5036768;28;20046;-67
2021/01/15 04:13:37;;;;;;;5.38;1.30;;;;;;;10.65;56.71;100724.09;5031314;28;20038;-68
2021/01/15 04:16:02;;;;;;;8.43;2.70;;;;;;;10.68;56.59;100713.59;5015334;28;20064;-68
2021/01/15 04:18:28;;;;;;;7.22;2.45;;;;;;;10.72;56.93;100696.91;5031008;28;20120;-67
2021/01/15 04:20:53;;;;;;;17.10;2.17;;;;;;;10.77;57.07;100693.47;5029993;28;20087;-67
2021/01/15 04:23:18;;;;;;;22.17;1.80;;;;;;;10.82;56.73;100687.38;5032889;28;20049;-67
2021/01/15 04:25:44;;;;;;;14.80;1.45;;;;;;;10.90;57.59;100689.22;5025909;28;20654;-68
2021/01/15 04:28:09;;;;;;;9.73;1.17;;;;;;;11.03;57.15;100680.59;5044454;28;20037;-67
2021/01/15 04:30:34;;;;;;;14.43;1.40;;;;;;;11.22;57.62;100680.84;5044037;28;20560;-67
2021/01/15 04:33:00;;;;;;;15.90;1.27;;;;;;;11.39;58.09;100687.19;5030033;28;20418;-67
2021/01/15 04:35:25;;;;;;;9.18;1.20;;;;;;;11.55;57.41;100681.22;5030622;28;20125;-68
2021/01/15 04:37:50;;;;;;;12.85;1.38;;;;;;;11.70;58.19;100669.88;5026987;28;20410;-67
2021/01/15 04:40:16;;;;;;;14.18;1.48;;;;;;;11.81;58.07;100661.22;5010860;28;20042;-67
2021/01/15 04:42:41;;;;;;;19.23;1.42;;;;;;;11.90;58.27;100656.00;5026512;28;20053;-67
2021/01/15 04:45:07;;;;;;;15.18;1.48;;;;;;;12.00;58.52;100637.56;5024326;28;20084;-67
2021/01/15 04:47:32;;;;;;;12.98;1.50;;;;;;;12.08;58.35;100638.50;5026554;28;20060;-67
2021/01/15 04:49:57;;;;;;;20.73;1.40;;;;;;;12.19;58.56;100647.41;5010262;28;20038;-67
2021/01/15 04:52:23;;;;;;;11.48;1.67;;;;;;;12.32;57.88;100665.13;5026068;28;20038;-67
2021/01/15 04:54:48;;;;;;;14.02;1.27;;;;;;;12.49;57.89;100670.53;5015707;28;20558;-68
2021/01/15 04:57:14;;;;;;;16.95;4.47;;;;;;;12.67;58.11;100668.88;5025969;28;20053;-67
2021/01/15 04:59:39;;;;;;;24.38;6.35;;;;;;;12.88;57.81;100667.19;5010239;28;20069;-68
2021/01/15 05:02:05;;;;;;;12.45;2.60;;;;;;;13.03;57.44;100668.16;5022497;28;20514;-67
2021/01/15 05:04:30;;;;;;;19.60;3.28;;;;;;;13.19;57.45;100669.16;5016085;28;20095;-67
2021/01/15 05:06:55;;;;;;;21.48;3.38;;;;;;;13.34;57.42;100674.47;5027519;28;20125;-68
2021/01/15 05:09:21;;;;;;;12.35;2.38;;;;;;;13.48;57.41;100685.13;5025842;28;20038;-67
2021/01/15 05:11:46;;;;;;;14.52;2.17;;;;;;;13.58;57.43;100676.34;5009920;28;20120;-67
2021/01/15 05:14:12;;;;;;;20.33;4.43;;;;;;;13.70;57.35;100683.41;5036131;28;20048;-67
2021/01/15 05:16:37;;;;;;;23.55;4.70;;;;;;;13.79;57.71;100675.44;5040233;28;20037;-68
2021/01/15 05:19:03;;;;;;;20.50;4.00;;;;;;;13.89;57.11;100674.59;5028814;28;20034;-67
2021/01/15 05:21:28;;;;;;;19.85;2.42;;;;;;;13.96;57.27;100652.47;5033591;28;20051;-67
2021/01/15 05:23:53;;;;;;;13.95;2.33;;;;;;;14.03;57.67;100648.94;5040909;28;20043;-67
2021/01/15 05:26:19;;;;;;;15.82;1.35;;;;;;;14.10;57.16;100650.72;5034063;28;20176;-67
2021/01/15 05:28:44;;;;;;;14.85;1.50;;;;;;;14.17;57.56;100648.94;5033651;28;20034;-69
2021/01/15 05:31:10;;;;;;;24.60;3.38;;;;;;;14.23;57.46;100638.31;5031925;28;20742;-67
2021/01/15 05:33:35;;;;;;;19.20;2.40;;;;;;;14.30;57.32;100637.41;5033694;28;20391;-67
2021/01/15 05:36:00;;;;;;;14.48;2.45;;;;;;;14.37;57.20;100641.84;5030115;28;20113;-67
2021/01/15 05:38:26;;;;;;;11.48;1.48;;;;;;;14.47;57.33;100630.31;5030449;28;20057;-67
2021/01/15 05:40:51;;;;;;;28.90;2.53;;;;;;;14.57;57.16;100632.03;5017531;28;20045;-67
2021/01/15 05:43:17;;;;;;;7.18;0.93;;;;;;;14.64;57.34;100636.47;5033286;28;20049;-67
2021/01/15 05:45:42;;;;;;;11.18;1.90;;;;;;;14.69;57.12;100644.44;5033334;28;20040;-67
2021/01/15 05:48:07;;;;;;;20.13;2.13;;;;;;;14.75;57.21;100649.72;5033912;28;20057;-67
2021/01/15 05:50:33;;;;;;;19.02;1.70;;;;;;;14.78;57.14;100660.34;5018060;28;20575;-67
2021/01/15 05:52:58;;;;;;;14.25;2.60;;;;;;;14.80;57.46;100657.69;5029205;28;20494;-67
2021/01/15 05:55:24;;;;;;;35.90;13.80;;;;;;;14.79;57.16;100647.94;5028789;28;20395;-67
2021/01/15 05:57:52;;;;;;;46.03;20.45;;;;;;;14.82;57.31;100656.78;5013044;28;20458;-67
2021/01/15 06:00:17;;;;;;;47.72;25.55;;;;;;;14.85;57.53;100646.13;5013664;28;20040;-74
2021/01/15 06:02:42;;;;;;;21.13;11.25;;;;;;;14.90;57.43;100644.34;5029253;28;20046;-67
2021/01/15 06:05:08;;;;;;;22.70;10.63;;;;;;;14.96;57.31;100659.41;5024026;28;20053;-67
2021/01/15 06:07:33;;;;;;;25.50;9.18;;;;;;;15.01;57.30;100660.25;5025629;28;20375;-67
2021/01/15 06:09:58;;;;;;;22.38;5.72;;;;;;;15.11;57.31;100661.97;5048102;28;20029;-67
2021/01/15 06:12:24;;;;;;;19.30;2.53;;;;;;;15.23;57.51;100675.22;5031440;28;20116;-67
2021/01/15 06:14:49;;;;;;;13.88;2.35;;;;;;;15.37;57.20;100665.38;5016460;28;20540;-67
2021/01/15 06:17:14;;;;;;;16.92;2.47;;;;;;;15.49;57.37;100667.97;5014161;28;20049;-67
2021/01/15 06:19:40;;;;;;;13.07;2.10;;;;;;;15.64;56.90;100666.16;5027303;28;20148;-67
2021/01/15 06:22:05;;;;;;;21.10;4.07;;;;;;;15.80;57.20;100668.72;5030907;28;20057;-67
2021/01/15 06:24:30;;;;;;;29.55;3.70;;;;;;;16.14;56.70;100652.47;5032673;28;20049;-70
2021/01/15 06:26:56;;;;;;;22.38;2.20;;;;;;;16.75;55.89;100660.72;5032586;28;20049;-64
2021/01/15 06:29:21;;;;;;;18.67;1.90;;;;;;;17.28;55.27;100659.19;5032834;28;20049;-67
2021/01/15 06:31:47;;;;;;;16.73;2.33;;;;;;;17.70;54.98;100657.75;5030499;28;20482;-66
2021/01/15 06:34:12;;;;;;;25.27;4.38;;;;;;;18.11;54.40;100655.28;5020304;28;20049;-67
2021/01/15 06:36:37;;;;;;;22.13;5.70;;;;;;;18.42;53.70;100642.25;5019411;28;20077;-67
2021/01/15 06:39:03;;;;;;;15.48;4.55;;;;;;;18.37;54.20;100648.59;5032151;28;20038;-67
2021/01/15 06:41:28;;;;;;;25.67;8.45;;;;;;;18.19;54.04;100655.13;5030940;28;20050;-67
2021/01/15 06:43:54;;;;;;;25.63;10.43;;;;;;;17.94;54.00;100657.34;5006518;28;20504;-66
2021/01/15 06:46:19;;;;;;;24.00;10.50;;;;;;;17.76;54.68;100649.63;5006481;28;20042;-67
2021/01/15 06:48:44;;;;;;;40.50;16.58;;;;;;;17.62;54.83;100652.50;4993011;28;20065;-67
2021/01/15 06:51:10;;;;;;;26.70;12.82;;;;;;;17.56;54.40;100667.69;5011907;28;20038;-67
2021/01/15 06:53:38;;;;;;;31.85;20.02;;;;;;;17.52;54.59;100651.72;5011562;28;20096;-67
2021/01/15 06:56:03;;;;;;;48.45;29.25;;;;;;;17.47;54.57;100661.59;5012169;28;20050;-67
2021/01/15 06:58:28;;;;;;;38.47;28.65;;;;;;;17.42;55.31;100665.22;5007543;28;20097;-67
2021/01/15 07:00:54;;;;;;;30.05;17.27;;;;;;;17.41;55.28;100671.47;5008612;28;20048;-67
2021/01/15 07:03:19;;;;;;;16.67;6.10;;;;;;;17.35;55.34;100675.09;5023934;28;20136;-67
2021/01/15 07:05:45;;;;;;;16.33;4.38;;;;;;;17.34;55.49;100672.44;5009584;28;20508;-66
2021/01/15 07:08:11;;;;;;;14.57;2.47;;;;;;;17.32;54.98;100664.50;5018207;28;20041;-67
2021/01/15 07:10:36;;;;;;;24.20;2.22;;;;;;;17.33;55.23;100674.22;5023763;28;20117;-67
2021/01/15 07:13:22;;;;;;;17.75;2.78;;;;;;;17.36;55.32;100671.53;5010813;28;20056;-66
2021/01/15 07:15:47;;;;;;;14.63;2.15;;;;;;;17.43;55.10;100678.56;5008270;28;20046;-67
2021/01/15 07:18:12;;;;;;;15.23;2.15;;;;;;;17.48;55.31;100679.38;5010864;28;20049;-67
2021/01/15 07:20:38;;;;;;;12.38;1.92;;;;;;;17.50;55.36;100682.03;5021142;28;20510;-67
2021/01/15 07:23:03;;;;;;;20.73;3.05;;;;;;;17.52;55.46;100689.09;5029777;28;20054;-67
2021/01/15 07:25:28;;;;;;;17.88;3.85;;;;;;;17.57;55.48;100688.16;5026942;28;20622;-67
2021/01/15 07:27:54;;;;;;;19.35;3.50;;;;;;;17.60;55.86;100682.75;5027513;28;20045;-65
2021/01/15 07:30:23;;;;;;;26.45;4.60;;;;;;;17.62;55.85;100681.00;5031401;28;20116;-69
2021/01/15 07:32:48;;;;;;;30.85;10.50;;;;;;;17.66;55.46;100691.59;5029794;28;20065;-67
2021/01/15 07:35:14;;;;;;;24.88;8.52;;;;;;;17.70;55.99;100696.00;5026750;28;20618;-67
2021/01/15 07:37:39;;;;;;;21.98;6.15;;;;;;;17.71;56.19;100683.53;5031183;28;20053;-68
2021/01/15 07:40:04;;;;;;;15.00;4.28;;;;;;;17.69;56.21;100688.91;5028164;28;20042;-68
2021/01/15 07:42:30;;;;;;;25.08;14.80;;;;;;;17.64;55.91;100680.06;5028711;28;20050;-67
2021/01/15 07:44:56;;;;;;;40.65;24.63;;;;;;;17.58;55.90;100698.81;5023569;28;20371;-66
2021/01/15 07:47:21;;;;;;;38.78;29.77;;;;;;;17.54;56.17;100694.41;5028309;28;20042;-67
2021/01/15 07:49:46;;;;;;;39.72;26.83;;;;;;;17.54;56.27;100687.28;5028630;28;20478;-66
2021/01/15 07:52:12;;;;;;;38.45;25.05;;;;;;;17.82;56.05;100686.91;5024645;28;20724;-67
2021/01/15 07:54:37;;;;;;;42.20;30.38;;;;;;;18.07;56.38;100682.94;5009800;28;20508;-67
2021/01/15 07:57:03;;;;;;;35.53;27.88;;;;;;;18.08;56.56;100692.72;5000946;28;22248;-66
2021/01/15 07:59:29;;;;;;;39.85;29.58;;;;;;;18.11;56.33;100697.16;5008871;28;20049;-67
2021/01/15 08:01:54;;;;;;;37.53;25.83;;;;;;;18.26;56.47;100700.44;5007237;28;20029;-68
2021/01/15 08:04:19;;;;;;;32.17;21.95;;;;;;;18.51;56.27;100700.03;5002660;28;20065;-69
2021/01/15 08:06:45;;;;;;;26.52;16.15;;;;;;;18.61;56.10;100694.53;5011137;28;20057;-70
2021/01/15 08:09:10;;;;;;;28.00;17.23;;;;;;;18.64;55.75;100710.50;5015370;28;20042;-64
2021/01/15 08:11:36;;;;;;;22.77;17.77;;;;;;;18.61;56.17;100710.56;5029198;28;20143;-67
2021/01/15 08:14:01;;;;;;;35.33;23.80;;;;;;;18.54;56.17;100721.34;5044794;28;20052;-68
2021/01/15 08:16:28;;;;;;;12.43;4.03;;;;;;;18.49;56.08;100731.25;5049406;28;20067;-67
2021/01/15 08:18:53;;;;;;;12.63;2.55;;;;;;;18.48;56.74;100734.84;5030516;28;20033;-73
2021/01/15 08:21:19;;;;;;;8.52;2.00;;;;;;;18.48;56.89;100734.84;5030650;28;20037;-68
2021/01/15 08:23:44;;;;;;;10.27;1.92;;;;;;;18.47;56.36;100743.75;5028532;28;20044;-68
2021/01/15 08:26:10;;;;;;;9.95;2.35;;;;;;;18.48;56.73;100745.53;5011248;28;20594;-68
2021/01/15 08:28:35;;;;;;;8.38;1.30;;;;;;;18.44;56.95;100749.16;5017445;28;20175;-68
2021/01/15 08:31:00;;;;;;;9.70;1.67;;;;;;;18.43;56.79;100753.63;5041279;28;20064;-69
2021/01/15 08:33:26;;;;;;;10.32;1.73;;;;;;;18.46;57.24;100753.56;5030170;28;20042;-70
2021/01/15 08:35:51;;;;;;;16.00;3.13;;;;;;;18.49;56.88;100749.97;5024768;28;20085;-69
2021/01/15 08:38:17;;;;;;;7.57;3.03;;;;;;;18.41;57.43;100743.84;5041938;28;20046;-79
2021/01/15 08:40:42;;;;;;;9.77;2.47;;;;;;;18.31;57.36;100733.31;5039014;28;20124;-68
2021/01/15 08:43:07;;;;;;;6.50;3.33;;;;;;;18.25;57.60;100730.75;5029052;28;20046;-69
2021/01/15 08:45:33;;;;;;;15.00;6.97;;;;;;;18.18;57.88;100734.41;5015895;28;20038;-64
2021/01/15 08:47:58;;;;;;;8.60;3.42;;;;;;;18.09;58.71;100715.00;5018648;28;20170;-64
2021/01/15 08:50:23;;;;;;;13.93;2.08;;;;;;;18.05;58.45;100716.81;5030211;28;20520;-70
2021/01/15 08:52:49;;;;;;;5.00;1.70;;;;;;;18.08;58.47;100718.56;5036447;28;20050;-71
2021/01/15 08:55:15;;;;;;;9.02;4.43;;;;;;;18.23;58.67;100718.34;5023641;28;20421;-69
2021/01/15 08:57:40;;;;;;;5.63;1.35;;;;;;;18.42;58.58;100718.91;5044639;28;20124;-71
2021/01/15 09:00:06;;;;;;;7.63;1.88;;;;;;;18.57;58.50;100706.19;5024000;28;20034;-70
2021/01/15 09:02:31;;;;;;;42.67;2.00;;;;;;;18.69;58.36;100707.75;5021997;28;20108;-71
2021/01/15 09:04:58;;;;;;;10.65;2.92;;;;;;;18.75;57.88;100702.28;5028887;28;20053;-68
2021/01/15 09:07:24;;;;;;;8.90;2.50;;;;;;;18.81;58.48;100698.59;5027805;28;20038;-70
2021/01/15 09:09:49;;;;;;;11.73;2.60;;;;;;;18.94;58.02;100692.09;5025076;28;20034;-65
2021/01/15 09:12:14;;;;;;;13.40;6.68;;;;;;;19.06;58.04;100690.06;5018167;28;20100;-66
2021/01/15 09:14:40;;;;;;;22.42;7.28;;;;;;;19.16;57.97;100688.09;5027853;28;20037;-68
2021/01/15 09:17:05;;;;;;;19.35;10.00;;;;;;;19.21;58.40;100691.56;5026331;28;20061;-68
2021/01/15 09:19:31;;;;;;;52.72;25.13;;;;;;;19.20;58.23;100689.78;5027811;28;20052;-68
2021/01/15 09:21:56;;;;;;;25.75;13.48;;;;;;;19.29;58.34;100688.72;5044469;28;20038;-67
2021/01/15 09:24:21;;;;;;;28.13;15.07;;;;;;;19.42;58.65;100700.94;5011789;28;20649;-67
2021/01/15 09:26:47;;;;;;;13.60;6.85;;;;;;;19.55;58.52;100702.47;5033227;28;20586;-68
2021/01/15 09:29:12;;;;;;;10.88;7.63;;;;;;;19.70;58.13;100703.88;5045117;28;20034;-63
2021/01/15 09:31:37;;;;;;;8.75;5.50;;;;;;;19.74;58.54;100713.63;5027316;28;20038;-65
2021/01/15 09:34:03;;;;;;;5.35;2.05;;;;;;;19.73;58.80;100706.50;5041376;28;20034;-68
2021/01/15 09:36:28;;;;;;;4.90;0.88;;;;;;;19.88;58.33;100709.72;5045404;28;20045;-69
2021/01/15 09:38:53;;;;;;;5.68;1.58;;;;;;;20.23;57.99;100702.59;5029349;28;20487;-68
2021/01/15 09:41:19;;;;;;;8.40;2.00;;;;;;;20.42;57.88;100695.00;5016858;28;20053;-68
2021/01/15 09:43:44;;;;;;;7.07;1.75;;;;;;;20.57;57.42;100694.63;5043514;28;20049;-62
2021/01/15 09:46:10;;;;;;;8.20;4.13;;;;;;;20.53;57.39;100687.59;5027650;28;20521;-66
2021/01/15 09:48:35;;;;;;;6.93;2.13;;;;;;;20.38;57.58;100683.50;5028752;28;20138;-65
2021/01/15 09:51:00;;;;;;;13.65;3.40;;;;;;;20.10;58.06;100679.72;5027909;28;20072;-67
2021/01/15 09:53:26;;;;;;;8.32;2.88;;;;;;;19.82;58.05;100680.38;5024574;28;20066;-67
2021/01/15 09:55:51;;;;;;;6.82;1.67;;;;;;;19.63;58.51;100675.47;5020855;28;20528;-66
2021/01/15 09:58:17;;;;;;;6.25;1.50;;;;;;;19.42;58.66;100687.53;5028242;28;20042;-67
2021/01/15 10:00:42;;;;;;;9.00;2.55;;;;;;;19.22;58.91;100687.97;5029551;28;20051;-67
2021/01/15 10:03:07;;;;;;;7.35;1.67;;;;;;;19.20;59.41;100688.91;5026211;28;20048;-66
2021/01/15 10:05:33;;;;;;;13.57;5.50;;;;;;;19.24;59.26;100685.22;5028198;28;20457;-67
2021/01/15 10:07:58;;;;;;;24.80;18.77;;;;;;;19.22;59.14;100689.75;5030295;28;20144;-66
2021/01/15 10:10:24;;;;;;;31.92;24.48;;;;;;;19.27;59.22;100691.41;5033400;28;20038;-66
2021/01/15 10:12:50;;;;;;;18.52;11.45;;;;;;;19.37;59.52;100692.97;5021063;28;20042;-66
2021/01/15 10:15:15;;;;;;;14.45;9.25;;;;;;;19.47;59.41;100683.00;5028908;28;20046;-66
2021/01/15 10:17:40;;;;;;;18.08;10.40;;;;;;;19.53;58.80;100682.84;5038856;28;20050;-67
2021/01/15 10:20:05;;;;;;;17.33;12.18;;;;;;;19.61;59.14;100675.53;5031012;28;20079;-67
2021/01/15 10:22:31;;;;;;;17.45;14.02;;;;;;;19.74;58.92;100678.81;5032767;28;20148;-66
2021/01/15 10:24:56;;;;;;;15.00;11.50;;;;;;;19.87;58.92;100672.25;5030840;28;20068;-67
2021/01/15 10:27:22;;;;;;;12.45;9.40;;;;;;;19.98;58.68;100674.66;5026511;28;20041;-66
2021/01/15 10:29:47;;;;;;;11.02;6.80;;;;;;;19.95;58.51;100678.31;5022394;28;20033;-66
2021/01/15 10:32:12;;;;;;;9.80;6.10;;;;;;;19.81;58.98;100686.66;5024246;28;20034;-66
2021/01/15 10:34:38;;;;;;;9.40;6.47;;;;;;;19.69;59.28;100686.94;5013129;28;20034;-62
2021/01/15 10:37:03;;;;;;;13.10;7.78;;;;;;;19.67;59.22;100674.50;5012671;28;20472;-63
2021/01/15 10:39:28;;;;;;;15.82;8.73;;;;;;;19.71;59.19;100671.72;5029666;28;20038;-66
2021/01/15 10:41:54;;;;;;;13.10;5.93;;;;;;;19.71;59.28;100665.47;5012450;28;20049;-62
2021/01/15 10:44:22;;;;;;;12.55;6.88;;;;;;;19.77;59.03;100671.56;5016532;28;20096;-64
2021/01/15 10:46:49;;;;;;;14.30;5.20;;;;;;;20.01;58.81;100656.72;5018320;28;20095;-64
2021/01/15 10:49:14;;;;;;;17.38;4.75;;;;;;;20.33;58.41;100655.94;5012401;28;20038;-65
2021/01/15 10:51:39;;;;;;;19.92;4.10;;;;;;;20.59;58.23;100652.53;5024688;28;20061;-66
2021/01/15 10:54:05;;;;;;;10.68;2.97;;;;;;;20.82;57.85;100643.84;5011147;28;20117;-65
2021/01/15 10:56:30;;;;;;;13.00;2.33;;;;;;;20.93;57.84;100639.94;5012418;28;20528;-65
2021/01/15 10:58:55;;;;;;;11.13;3.20;;;;;;;20.88;57.27;100651.72;4992735;28;20039;-64
2021/01/15 11:01:21;;;;;;;22.25;1.77;;;;;;;20.59;57.73;100655.22;4998144;28;20046;-66
2021/01/15 11:03:46;;;;;;;11.00;1.90;;;;;;;20.23;57.81;100657.03;5006044;28;20041;-65
2021/01/15 11:06:11;;;;;;;16.23;1.60;;;;;;;19.91;58.22;100657.84;5000592;28;20054;-67
2021/01/15 11:08:37;;;;;;;12.70;1.38;;;;;;;19.66;58.66;100660.22;4994987;28;20045;-65
2021/01/15 11:11:02;;;;;;;13.63;3.40;;;;;;;19.41;59.20;100667.03;5001070;28;20046;-64